Time;durP1;ratioP1;P1;durP2;ratioP2;P2;SDS_P1;SDS_P2;PMS_P1;PMS_P2;Temp;Humidity;BMP_temperature;BMP_pressure;BME280_temperature;BME280_humidity;BME280_pressure;Samples;Min_cycle;Max_cycle;Signal;HPM_P1;HPM_P2
2021/06/29 00:00:00;;;;;;;4.78;3.10;;;692.00;1152.00;;;;;;4954259;28;20027;-70
2021/06/29 00:02:25;;;;;;;8.00;2.90;;;692.00;1152.00;;;;;;4953777;28;20030;-71
2021/06/29 00:04:52;;;;;;;6.32;2.65;;;691.90;1152.00;;;;;;4954352;28;20110;-71
2021/06/29 00:07:18;;;;;;;11.43;3.17;;;691.90;1152.00;;;;;;4953488;28;20514;-71
2021/06/29 00:09:45;;;;;;;5.22;3.08;;;691.90;1152.00;;;;;;4954530;28;20043;-71
2021/06/29 00:12:12;;;;;;;18.00;3.47;;;691.80;1152.00;;;;;;4953891;28;20073;-71
2021/06/29 00:14:40;;;;;;;8.55;3.00;;;691.80;1177.60;;;;;;4954302;28;20078;-71
2021/06/29 00:17:06;;;;;;;6.47;3.03;;;691.80;1177.60;;;;;;4953612;29;20357;-71
2021/06/29 00:19:32;;;;;;;6.38;3.42;;;691.80;1177.60;;;;;;4954363;28;20050;-71
2021/06/29 00:21:57;;;;;;;7.88;3.50;;;691.70;1203.20;;;;;;4954030;28;20511;-71
2021/06/29 00:24:23;;;;;;;4.55;3.53;;;691.70;1203.20;;;;;;4953946;28;20070;-71
2021/06/29 00:26:49;;;;;;;10.13;3.60;;;691.70;1203.20;;;;;;4954034;28;20030;-70
2021/06/29 00:29:15;;;;;;;4.53;3.20;;;691.60;1228.80;;;;;;4952287;28;20027;-69
2021/06/29 00:31:41;;;;;;;6.63;3.53;;;691.60;1228.80;;;;;;4953029;28;20028;-71
2021/06/29 00:34:07;;;;;;;8.95;3.45;;;691.50;1228.80;;;;;;4953614;28;20055;-72
2021/06/29 00:36:33;;;;;;;8.05;3.67;;;691.40;1228.80;;;;;;4953017;28;20488;-72
2021/06/29 00:38:59;;;;;;;6.30;3.35;;;691.40;1228.80;;;;;;4952629;28;20032;-71
2021/06/29 00:41:25;;;;;;;11.27;3.97;;;691.30;1254.40;;;;;;4952154;29;20395;-72
2021/06/29 00:43:52;;;;;;;6.00;3.58;;;691.30;1254.40;;;;;;4953697;28;20039;-73
2021/06/29 00:46:19;;;;;;;11.32;3.60;;;691.30;1254.40;;;;;;4953472;28;20039;-72
2021/06/29 00:48:45;;;;;;;10.82;3.05;;;691.30;1254.40;;;;;;4953725;28;20027;-71
2021/06/29 00:51:13;;;;;;;7.65;3.03;;;691.30;1254.40;;;;;;4953373;28;20035;-71
2021/06/29 00:53:39;;;;;;;6.05;3.40;;;691.20;1254.40;;;;;;4953238;29;20027;-71
2021/06/29 00:56:14;;;;;;;8.25;3.67;;;691.20;1254.40;;;;;;4952746;28;20090;-71
2021/06/29 00:58:48;;;;;;;16.23;6.05;;;691.20;1280.00;;;;;;4953178;28;20150;-72
2021/06/29 01:01:15;;;;;;;9.52;3.97;;;666.50;1280.00;;;;;;4951115;29;20035;-71
2021/06/29 01:03:42;;;;;;;5.68;3.47;;;666.40;1280.00;;;;;;4953272;29;20027;-71
2021/06/29 01:06:10;;;;;;;5.15;3.72;;;666.40;1280.00;;;;;;4953027;28;20031;-72
2021/06/29 01:08:36;;;;;;;7.00;3.05;;;666.30;1280.00;;;;;;4952887;28;20072;-71
2021/06/29 01:11:02;;;;;;;5.38;3.22;;;666.30;1280.00;;;;;;4953168;28;20027;-71
2021/06/29 01:13:37;;;;;;;6.30;4.03;;;666.30;1305.60;;;;;;4951959;28;20483;-71
2021/06/29 01:16:06;;;;;;;4.75;3.63;;;666.30;1305.60;;;;;;4953440;29;20476;-71
2021/06/29 01:18:36;;;;;;;6.15;4.07;;;666.30;1305.60;;;;;;4952568;28;20461;-71
2021/06/29 01:21:04;;;;;;;10.40;3.58;;;666.20;1305.60;;;;;;4953643;28;20116;-71
2021/06/29 01:23:30;;;;;;;6.70;3.83;;;666.30;1305.60;;;;;;4952615;28;20024;-71
2021/06/29 01:26:21;;;;;;;10.93;3.90;;;666.10;1305.60;;;;;;4952129;29;20032;-71
2021/06/29 01:31:17;;;;;;;5.55;3.38;;;666.10;1305.60;;;;;;4953015;28;20114;-71
2021/06/29 01:33:43;;;;;;;7.72;4.38;;;666.10;1305.60;;;;;;4952793;29;20102;-71
2021/06/29 01:36:17;;;;;;;11.25;3.80;;;666.10;1331.20;;;;;;4953061;28;20602;-71
2021/06/29 01:38:44;;;;;;;6.70;3.72;;;666.10;1331.20;;;;;;4952723;29;20027;-71
2021/06/29 01:41:12;;;;;;;9.27;4.18;;;666.10;1331.20;;;;;;4952745;28;20047;-70
2021/06/29 01:43:46;;;;;;;8.13;4.07;;;666.10;1331.20;;;;;;4952879;29;20034;-71
2021/06/29 01:46:13;;;;;;;9.88;4.82;;;666.10;1331.20;;;;;;4952634;28;20054;-71
2021/06/29 01:48:50;;;;;;;6.22;4.00;;;666.00;1331.20;;;;;;4952709;29;20026;-71
2021/06/29 01:51:17;;;;;;;8.00;4.13;;;666.00;1331.20;;;;;;4952357;29;20027;-71
2021/06/29 01:53:46;;;;;;;10.38;4.07;;;665.90;1331.20;;;;;;4951703;28;20028;-71
2021/06/29 01:56:14;;;;;;;7.15;5.07;;;665.90;1331.20;;;;;;4952308;28;20027;-70
2021/06/29 01:58:52;;;;;;;6.80;4.43;;;665.80;1356.80;;;;;;4952692;29;20051;-71
2021/06/29 02:01:19;;;;;;;10.20;5.28;;;665.80;1356.80;;;;;;4952232;28;20091;-71
2021/06/29 02:03:45;;;;;;;8.75;5.07;;;665.70;1382.40;;;;;;4952689;29;20077;-71
2021/06/29 02:06:11;;;;;;;11.15;5.10;;;665.70;1382.40;;;;;;4952454;28;20023;-71
2021/06/29 02:08:37;;;;;;;8.38;5.18;;;665.70;1382.40;;;;;;4952054;29;20027;-71
2021/06/29 02:11:03;;;;;;;16.73;4.90;;;665.60;1408.00;;;;;;4952576;28;20088;-71
2021/06/29 02:13:29;;;;;;;8.35;4.80;;;665.60;1382.40;;;;;;4950622;28;20023;-71
2021/06/29 02:15:56;;;;;;;7.82;4.75;;;665.60;1382.40;;;;;;4952626;29;20023;-71
2021/06/29 02:18:24;;;;;;;7.55;4.65;;;665.60;1408.00;;;;;;4951806;29;20023;-72
2021/06/29 02:20:50;;;;;;;13.20;5.13;;;640.70;1408.00;;;;;;4952652;28;20039;-71
2021/06/29 02:23:16;;;;;;;11.52;4.68;;;640.80;1382.40;;;;;;4951808;28;20032;-71
2021/06/29 02:25:43;;;;;;;11.23;5.18;;;640.70;1382.40;;;;;;4951971;29;20031;-71
2021/06/29 02:28:09;;;;;;;8.13;4.50;;;640.70;1382.40;;;;;;4951849;28;20033;-72
2021/06/29 02:30:36;;;;;;;10.55;4.93;;;640.70;1382.40;;;;;;4951667;28;20046;-71
2021/06/29 02:33:02;;;;;;;11.57;5.18;;;640.70;1382.40;;;;;;4952008;28;20384;-71
2021/06/29 02:35:28;;;;;;;13.23;4.90;;;640.70;1382.40;;;;;;4951279;28;20058;-71
2021/06/29 02:37:55;;;;;;;8.93;4.70;;;640.70;1382.40;;;;;;4952326;28;20111;-71
2021/06/29 02:40:22;;;;;;;9.77;4.60;;;640.70;1382.40;;;;;;4951229;28;20087;-71
2021/06/29 02:42:47;;;;;;;7.07;4.75;;;640.70;1382.40;;;;;;4952154;28;20535;-71
2021/06/29 02:45:23;;;;;;;11.32;4.70;;;640.60;1382.40;;;;;;4951614;28;20102;-71
2021/06/29 02:47:49;;;;;;;10.35;5.15;;;640.70;1408.00;;;;;;4951785;28;20047;-71
2021/06/29 02:50:16;;;;;;;8.20;4.57;;;640.60;1408.00;;;;;;4951493;28;20474;-71
2021/06/29 02:52:43;;;;;;;12.77;4.50;;;640.60;1408.00;;;;;;4951680;28;20019;-71
2021/06/29 02:55:11;;;;;;;7.47;4.30;;;640.60;1408.00;;;;;;4951912;28;20042;-70
2021/06/29 02:57:38;;;;;;;12.63;4.68;;;640.50;1408.00;;;;;;4951268;28;20035;-72
2021/06/29 03:00:07;;;;;;;7.13;4.25;;;640.50;1408.00;;;;;;4951642;28;20069;-71
2021/06/29 03:02:33;;;;;;;12.32;4.55;;;640.60;1408.00;;;;;;4951380;28;20436;-71
2021/06/29 03:04:58;;;;;;;10.38;5.30;;;640.60;1408.00;;;;;;4951853;28;20066;-71
2021/06/29 03:07:24;;;;;;;8.93;4.82;;;640.60;1408.00;;;;;;4951066;28;20484;-71
2021/06/29 03:09:50;;;;;;;10.85;4.68;;;640.50;1408.00;;;;;;4950231;28;20039;-71
2021/06/29 03:12:16;;;;;;;12.95;4.75;;;640.50;1408.00;;;;;;4951588;28;20102;-71
2021/06/29 03:14:42;;;;;;;11.85;4.85;;;640.50;1408.00;;;;;;4951546;28;20053;-70
2021/06/29 03:17:08;;;;;;;17.42;4.55;;;640.50;1408.00;;;;;;4951767;28;20041;-71
2021/06/29 03:19:35;;;;;;;11.18;4.68;;;640.50;1408.00;;;;;;4951071;28;20035;-71
2021/06/29 03:22:02;;;;;;;17.17;5.53;;;640.50;1408.00;;;;;;4951745;28;20110;-71
2021/06/29 03:24:29;;;;;;;15.20;4.28;;;640.50;1408.00;;;;;;4950497;28;20046;-71
2021/06/29 03:26:56;;;;;;;12.00;4.63;;;640.50;1408.00;;;;;;4951612;28;20031;-71
2021/06/29 03:29:22;;;;;;;25.08;5.25;;;640.50;1408.00;;;;;;4950589;28;20030;-71
2021/06/29 03:31:48;;;;;;;286.08;18.80;;;640.50;1408.00;;;;;;4951502;28;20494;-71
2021/06/29 03:34:14;;;;;;;82.40;7.68;;;640.50;1408.00;;;;;;4951387;28;20102;-71
2021/06/29 03:36:41;;;;;;;248.32;15.75;;;640.50;1408.00;;;;;;4952159;28;20028;-71
2021/06/29 03:39:09;;;;;;;148.77;11.15;;;640.50;1408.00;;;;;;4954350;28;20028;-71
2021/06/29 03:41:35;;;;;;;80.50;8.25;;;640.50;1408.00;;;;;;4954276;28;20140;-70
2021/06/29 03:44:01;;;;;;;39.72;5.53;;;640.40;1408.00;;;;;;4954845;28;20031;-71
2021/06/29 03:46:27;;;;;;;49.35;6.72;;;640.30;1408.00;;;;;;4954265;28;20027;-71
2021/06/29 03:48:53;;;;;;;560.05;33.88;;;640.30;1408.00;;;;;;4954657;28;20036;-71
2021/06/29 03:51:19;;;;;;;94.30;9.18;;;640.30;1433.60;;;;;;4953648;28;20042;-70
2021/06/29 03:53:45;;;;;;;10.02;4.13;;;640.30;1433.60;;;;;;4954383;28;20024;-70
2021/06/29 03:56:24;;;;;;;15.57;7.35;;;640.30;1433.60;;;;;;4952931;28;20023;-71
2021/06/29 03:58:55;;;;;;;9.32;3.88;;;640.30;1433.60;;;;;;4954260;28;20019;-71
2021/06/29 04:01:21;;;;;;;12.75;3.85;;;640.30;1433.60;;;;;;4953838;28;20024;-71
2021/06/29 04:03:48;;;;;;;12.73;6.05;;;640.30;1433.60;;;;;;4954047;28;20380;-71
2021/06/29 04:06:14;;;;;;;18.38;4.78;;;640.40;1433.60;;;;;;4954679;28;20031;-71
2021/06/29 04:08:40;;;;;;;26.23;4.75;;;640.40;1408.00;;;;;;4953718;28;20035;-71
2021/06/29 04:11:06;;;;;;;72.90;6.57;;;640.50;1433.60;;;;;;4953990;28;20039;-71
2021/06/29 04:13:32;;;;;;;42.08;5.32;;;640.50;1408.00;;;;;;4953471;28;20029;-71
2021/06/29 04:15:58;;;;;;;26.35;4.45;;;640.50;1408.00;;;;;;4954629;28;20030;-72
2021/06/29 04:18:24;;;;;;;43.42;5.60;;;640.50;1433.60;;;;;;4953867;28;20019;-72
2021/06/29 04:20:49;;;;;;;76.85;6.70;;;640.60;1408.00;;;;;;4953719;28;20062;-72
2021/06/29 04:23:15;;;;;;;110.30;8.93;;;640.60;1408.00;;;;;;4954148;28;20023;-76
2021/06/29 04:25:41;;;;;;;189.57;12.30;;;640.60;1433.60;;;;;;4952458;28;20023;-74
2021/06/29 04:28:07;;;;;;;32.20;4.90;;;640.60;1408.00;;;;;;4954103;28;20027;-71
2021/06/29 04:30:33;;;;;;;47.70;5.43;;;640.70;1408.00;;;;;;4952932;28;20042;-70
2021/06/29 04:32:59;;;;;;;170.27;12.63;;;640.70;1433.60;;;;;;4953826;28;20098;-71
2021/06/29 04:35:24;;;;;;;14.50;4.25;;;640.80;1433.60;;;;;;4953241;28;20035;-71
2021/06/29 04:37:50;;;;;;;77.35;8.57;;;640.90;1433.60;;;;;;4952654;28;20383;-71
2021/06/29 04:40:16;;;;;;;142.00;10.35;;;640.80;1433.60;;;;;;4952765;28;20403;-71
2021/06/29 04:42:43;;;;;;;205.02;13.57;;;640.90;1433.60;;;;;;4952933;28;20024;-70
2021/06/29 04:45:09;;;;;;;21.52;4.63;;;665.60;1459.20;;;;;;4953220;28;20446;-71
2021/06/29 04:47:46;;;;;;;277.92;15.80;;;665.60;1459.20;;;;;;4952705;28;20722;-71
2021/06/29 04:50:13;;;;;;;109.75;8.25;;;665.70;1433.60;;;;;;4952577;29;20039;-70
2021/06/29 04:52:39;;;;;;;500.50;26.88;;;665.70;1433.60;;;;;;4950837;28;20031;-71
2021/06/29 04:55:05;;;;;;;20.83;4.70;;;665.80;1433.60;;;;;;4951933;28;20387;-71
2021/06/29 04:57:31;;;;;;;75.68;8.30;;;665.80;1433.60;;;;;;4952460;28;20161;-71
2021/06/29 04:59:56;;;;;;;78.22;7.22;;;665.80;1433.60;;;;;;4953141;28;20030;-71
2021/06/29 05:02:22;;;;;;;195.20;13.10;;;665.80;1433.60;;;;;;4952491;28;20106;-71
2021/06/29 05:04:48;;;;;;;117.05;10.13;;;665.90;1433.60;;;;;;4953311;28;20020;-71
2021/06/29 05:07:14;;;;;;;52.92;5.65;;;666.00;1433.60;;;;;;4953023;28;20023;-71
2021/06/29 05:09:40;;;;;;;435.80;26.00;;;666.00;1433.60;;;;;;4952531;28;20039;-71
2021/06/29 05:12:06;;;;;;;224.40;14.60;;;666.00;1433.60;;;;;;4952655;28;20027;-71
2021/06/29 05:14:31;;;;;;;85.90;8.27;;;666.10;1433.60;;;;;;4952488;28;20031;-72
2021/06/29 05:16:57;;;;;;;123.00;9.50;;;666.10;1433.60;;;;;;4953300;28;20396;-71
2021/06/29 05:19:23;;;;;;;66.40;7.13;;;666.10;1433.60;;;;;;4952534;28;20077;-71
2021/06/29 05:21:49;;;;;;;71.28;7.05;;;666.20;1433.60;;;;;;4953032;28;20037;-71
2021/06/29 05:24:15;;;;;;;17.98;5.15;;;666.20;1408.00;;;;;;4953323;28;20035;-71
2021/06/29 05:26:41;;;;;;;18.40;11.32;;;666.30;1408.00;;;;;;4953031;28;20026;-71
2021/06/29 05:29:06;;;;;;;15.18;5.07;;;666.30;1433.60;;;;;;4953120;28;20035;-72
2021/06/29 05:31:32;;;;;;;9.93;4.55;;;666.30;1408.00;;;;;;4952407;28;20031;-72
2021/06/29 05:33:58;;;;;;;8.00;4.70;;;666.30;1408.00;;;;;;4953416;28;20072;-71
2021/06/29 05:36:24;;;;;;;23.02;5.70;;;666.40;1408.00;;;;;;4952632;28;20088;-71
2021/06/29 05:38:50;;;;;;;468.25;26.42;;;666.50;1408.00;;;;;;4953220;28;20024;-71
2021/06/29 05:41:16;;;;;;;682.38;40.17;;;691.20;1408.00;;;;;;4952181;28;20051;-71
2021/06/29 05:43:41;;;;;;;482.40;28.45;;;691.20;1408.00;;;;;;4952994;28;20024;-70
2021/06/29 05:46:07;;;;;;;34.42;6.10;;;691.20;1408.00;;;;;;4952739;28;20070;-71
2021/06/29 05:48:34;;;;;;;822.20;54.05;;;691.20;1408.00;;;;;;4952743;28;20084;-71
2021/06/29 05:51:00;;;;;;;244.27;17.85;;;691.30;1408.00;;;;;;4951725;29;20031;-72
2021/06/29 05:53:27;;;;;;;205.90;12.50;;;691.30;1433.60;;;;;;4952158;28;20106;-71
2021/06/29 05:55:54;;;;;;;160.80;11.07;;;691.30;1408.00;;;;;;4952878;28;20031;-71
2021/06/29 05:58:19;;;;;;;135.75;11.35;;;691.40;1408.00;;;;;;4952394;28;20023;-72
2021/06/29 06:00:45;;;;;;;166.13;13.15;;;691.40;1382.40;;;;;;4952347;28;20034;-71
2021/06/29 06:03:11;;;;;;;39.58;5.90;;;691.50;1408.00;;;;;;4952107;28;20499;-72
2021/06/29 06:05:37;;;;;;;58.80;6.20;;;691.50;1408.00;;;;;;4952642;28;20035;-71
2021/06/29 06:08:03;;;;;;;22.02;4.93;;;691.60;1408.00;;;;;;4952476;28;20031;-71
2021/06/29 06:10:29;;;;;;;211.15;13.95;;;691.70;1408.00;;;;;;4951261;28;20114;-71
2021/06/29 06:12:55;;;;;;;128.85;10.15;;;691.80;1382.40;;;;;;4952340;28;20111;-71
2021/06/29 06:15:23;;;;;;;361.35;23.15;;;691.80;1408.00;;;;;;4952069;28;20399;-71
2021/06/29 06:17:49;;;;;;;123.03;10.02;;;691.90;1433.60;;;;;;4952648;28;20024;-71
2021/06/29 06:20:17;;;;;;;38.17;6.35;;;692.00;1408.00;;;;;;4951914;28;20031;-71
2021/06/29 06:22:43;;;;;;;52.90;6.40;;;692.10;1382.40;;;;;;4952277;28;20025;-71
2021/06/29 06:25:09;;;;;;;84.03;7.80;;;716.80;1408.00;;;;;;4951786;28;20028;-71
2021/06/29 06:27:35;;;;;;;44.45;7.18;;;716.80;1408.00;;;;;;4950972;29;20038;-71
2021/06/29 06:30:03;;;;;;;33.95;5.90;;;716.90;1382.40;;;;;;4951952;28;20531;-71
2021/06/29 06:32:29;;;;;;;35.50;6.30;;;717.10;1382.40;;;;;;4951659;29;20086;-71
2021/06/29 06:34:55;;;;;;;38.15;5.95;;;717.20;1382.40;;;;;;4951693;28;20495;-71
2021/06/29 06:37:21;;;;;;;36.97;5.85;;;717.30;1382.40;;;;;;4951785;28;20028;-71
2021/06/29 06:39:47;;;;;;;25.23;5.13;;;717.40;1356.80;;;;;;4951165;28;20039;-71
2021/06/29 06:42:14;;;;;;;19.55;5.00;;;717.50;1356.80;;;;;;4950861;28;20024;-72
2021/06/29 06:44:39;;;;;;;14.80;5.60;;;717.60;1356.80;;;;;;4951799;28;20059;-71
2021/06/29 06:47:06;;;;;;;17.52;5.10;;;717.70;1356.80;;;;;;4951138;28;20043;-71
2021/06/29 06:49:32;;;;;;;12.98;4.70;;;742.40;1382.40;;;;;;4951276;28;20107;-71
2021/06/29 06:51:57;;;;;;;17.42;4.72;;;742.50;1356.80;;;;;;4951254;29;20170;-71
2021/06/29 06:54:23;;;;;;;17.63;4.75;;;742.60;1356.80;;;;;;4951109;28;20023;-72
2021/06/29 06:56:49;;;;;;;14.40;4.78;;;742.60;1331.20;;;;;;4951499;28;20033;-71
2021/06/29 06:59:15;;;;;;;23.80;4.68;;;742.70;1356.80;;;;;;4951142;28;20027;-71
2021/06/29 07:01:41;;;;;;;16.58;5.28;;;742.80;1331.20;;;;;;4950186;28;20024;-72
2021/06/29 07:04:07;;;;;;;8.52;3.85;;;742.90;1331.20;;;;;;4950653;28;20020;-70
2021/06/29 07:06:33;;;;;;;16.13;4.55;;;743.00;1331.20;;;;;;4951460;28;20024;-71
2021/06/29 07:08:59;;;;;;;14.10;4.63;;;743.10;1305.60;;;;;;4950856;28;20023;-72
2021/06/29 07:11:24;;;;;;;18.25;4.80;;;743.10;1305.60;;;;;;4951576;28;20062;-71
2021/06/29 07:13:50;;;;;;;30.80;5.00;;;743.20;1305.60;;;;;;4954402;28;20026;-71
2021/06/29 07:16:19;;;;;;;30.63;4.97;;;743.20;1305.60;;;;;;4954519;28;20378;-71
2021/06/29 07:18:45;;;;;;;44.15;5.53;;;743.30;1305.60;;;;;;4953443;28;20110;-71
2021/06/29 07:21:11;;;;;;;33.55;4.90;;;743.30;1331.20;;;;;;4954210;29;20527;-70
2021/06/29 07:23:37;;;;;;;31.83;5.13;;;768.00;1305.60;;;;;;4954405;28;20059;-70
2021/06/29 07:26:04;;;;;;;34.15;5.68;;;768.00;1280.00;;;;;;4953405;28;20110;-70
2021/06/29 07:28:29;;;;;;;36.08;5.85;;;768.00;1305.60;;;;;;4955148;28;20027;-70
2021/06/29 07:30:55;;;;;;;49.60;5.88;;;768.10;1305.60;;;;;;4954493;28;20036;-71
2021/06/29 08:24:51;;;;;;;41.03;5.75;;;743.20;1408.00;;;;;;5111775;27;20859;-72
2021/06/29 08:27:17;;;;;;;42.35;6.18;;;743.20;1331.20;;;;;;5110010;28;20085;-71
2021/06/29 08:29:44;;;;;;;36.10;5.65;;;743.10;1331.20;;;;;;5111204;28;20493;-72
2021/06/29 08:32:11;;;;;;;73.47;6.88;;;743.30;1305.60;;;;;;5111170;28;20063;-71
2021/06/29 08:34:37;;;;;;;58.63;6.28;;;768.00;1305.60;;;;;;5111141;28;20016;-71
2021/06/29 08:37:03;;;;;;;32.78;5.43;;;768.10;1305.60;;;;;;5111335;28;20020;-72
2021/06/29 08:39:29;;;;;;;27.70;5.70;;;768.20;1280.00;;;;;;5110906;28;20384;-71
2021/06/29 08:41:55;;;;;;;36.03;6.00;;;768.40;1280.00;;;;;;5109547;28;20044;-71
2021/06/29 08:44:21;;;;;;;14.23;5.68;;;768.50;1280.00;;;;;;5109294;28;20092;-72
2021/06/29 08:46:47;;;;;;;20.15;5.65;;;768.70;1305.60;;;;;;5109057;28;20065;-72
2021/06/29 08:49:13;;;;;;;15.23;5.60;;;768.70;1254.40;;;;;;5109259;28;20028;-72
2021/06/29 08:51:39;;;;;;;26.50;10.50;;;793.60;1280.00;;;;;;5107956;28;20497;-72
2021/06/29 08:54:05;;;;;;;20.52;9.30;;;793.60;1254.40;;;;;;5108559;28;20028;-71
2021/06/29 08:56:32;;;;;;;19.67;8.90;;;793.70;1254.40;;;;;;5109074;28;20048;-71
2021/06/29 08:59:00;;;;;;;17.13;8.38;;;793.80;1254.40;;;;;;5109299;28;20024;-71
2021/06/29 09:01:27;;;;;;;19.38;10.00;;;793.80;1254.40;;;;;;5109038;28;20096;-72
2021/06/29 09:03:53;;;;;;;36.35;9.35;;;793.80;1254.40;;;;;;5109111;28;20073;-71
2021/06/29 09:06:39;;;;;;;32.00;9.90;;;793.80;1254.40;;;;;;5109285;28;20043;-70
2021/06/29 09:09:28;;;;;;;15.40;7.75;;;793.80;1254.40;;;;;;5107719;28;20016;-71
2021/06/29 09:11:57;;;;;;;16.33;7.28;;;793.90;1254.40;;;;;;5108869;28;20379;-72
2021/06/29 09:14:30;;;;;;;24.90;7.50;;;794.00;1228.80;;;;;;5108793;28;20464;-72
2021/06/29 09:17:16;;;;;;;18.63;6.50;;;794.00;1228.80;;;;;;5106243;28;20031;-72
2021/06/29 09:19:42;;;;;;;15.38;6.38;;;794.00;1228.80;;;;;;5106945;28;20020;-72
2021/06/29 09:22:30;;;;;;;22.30;6.32;;;794.00;1228.80;;;;;;5108747;28;20028;-71
2021/06/29 09:24:57;;;;;;;70.80;8.35;;;794.10;1254.40;;;;;;5108637;28;20028;-71
2021/06/29 09:27:45;;;;;;;68.78;7.40;;;794.10;1228.80;;;;;;5108505;28;20020;-73
2021/06/29 09:30:33;;;;;;;28.65;5.80;;;794.10;1228.80;;;;;;5107853;28;20012;-72
2021/06/29 09:33:08;;;;;;;39.83;6.35;;;794.10;1254.40;;;;;;5106327;28;20464;-72
2021/06/29 09:35:35;;;;;;;46.38;6.93;;;794.10;1254.40;;;;;;5098395;28;20055;-72
2021/06/29 09:38:04;;;;;;;88.15;8.52;;;794.10;1254.40;;;;;;5095263;28;20384;-75
2021/06/29 09:40:31;;;;;;;48.35;7.38;;;794.10;1254.40;;;;;;5095194;28;20056;-72
2021/06/29 09:43:15;;;;;;;47.28;7.65;;;794.10;1254.40;;;;;;5093941;28;20544;-72
2021/06/29 09:45:46;;;;;;;27.15;6.30;;;794.10;1254.40;;;;;;5095949;28;20442;-73
2021/06/29 09:48:17;;;;;;;30.77;7.15;;;794.10;1254.40;;;;;;5096202;28;20084;-73
2021/06/29 09:50:53;;;;;;;25.10;6.70;;;794.10;1254.40;;;;;;5095920;28;20472;-77
2021/06/29 09:53:27;;;;;;;16.60;5.88;;;794.30;1254.40;;;;;;5094876;28;20024;-72
2021/06/29 09:55:56;;;;;;;15.02;5.28;;;794.30;1254.40;;;;;;5075397;28;20024;-72
2021/06/29 09:58:23;;;;;;;25.85;6.03;;;794.30;1228.80;;;;;;5075557;28;20039;-73
2021/06/29 10:00:53;;;;;;;33.83;7.15;;;794.30;1254.40;;;;;;5075544;28;20016;-73
2021/06/29 10:03:37;;;;;;;43.22;7.65;;;794.30;1254.40;;;;;;5075479;28;20032;-74
2021/06/29 10:06:15;;;;;;;28.73;6.80;;;794.30;1228.80;;;;;;5094527;28;20024;-72
2021/06/29 10:09:08;;;;;;;17.92;6.53;;;794.40;1228.80;;;;;;5095488;28;20035;-73
2021/06/29 10:11:38;;;;;;;23.48;7.20;;;794.30;1228.80;;;;;;5088746;28;20024;-72
2021/06/29 10:14:05;;;;;;;57.00;7.57;;;794.30;1254.40;;;;;;5095387;28;20028;-72
2021/06/29 10:16:48;;;;;;;34.13;7.25;;;794.30;1254.40;;;;;;5094344;28;20375;-72
2021/06/29 10:22:01;;;;;;;18.48;7.80;;;794.30;1254.40;;;;;;5095533;28;20107;-72
2021/06/29 10:24:31;;;;;;;20.20;6.75;;;794.30;1254.40;;;;;;5095201;28;20076;-72
2021/06/29 10:26:58;;;;;;;20.48;6.65;;;794.30;1254.40;;;;;;5095675;28;20024;-72
2021/06/29 10:29:26;;;;;;;17.73;6.75;;;794.30;1280.00;;;;;;5095598;28;20039;-71
2021/06/29 10:31:55;;;;;;;25.63;7.03;;;794.30;1280.00;;;;;;5095170;28;20059;-73
2021/06/29 10:34:24;;;;;;;27.13;7.00;;;794.10;1280.00;;;;;;5094730;28;20103;-72
2021/06/29 10:36:52;;;;;;;51.80;7.72;;;794.10;1280.00;;;;;;5093529;28;20031;-72
2021/06/29 10:39:20;;;;;;;68.63;8.30;;;794.30;1254.40;;;;;;5095084;28;20548;-72
2021/06/29 10:41:51;;;;;;;40.63;7.97;;;794.50;1280.00;;;;;;5095310;28;20059;-71
2021/06/29 10:44:20;;;;;;;44.75;7.45;;;794.50;1254.40;;;;;;5093699;28;20032;-71
2021/06/29 10:46:55;;;;;;;64.45;8.40;;;794.50;1254.40;;;;;;5094526;28;20024;-72
2021/06/29 10:49:31;;;;;;;84.13;8.77;;;794.50;1254.40;;;;;;5094933;28;20085;-72
2021/06/29 10:51:59;;;;;;;70.68;9.02;;;819.20;1228.80;;;;;;5095171;28;20122;-72
2021/06/29 10:54:43;;;;;;;49.60;8.60;;;794.50;1254.40;;;;;;5095122;28;20020;-71
2021/06/29 10:57:12;;;;;;;19.95;5.72;;;794.50;1228.80;;;;;;5093409;28;20023;-71
2021/06/29 10:59:40;;;;;;;33.15;8.23;;;819.30;1203.20;;;;;;5094534;28;20031;-71
2021/06/29 11:02:14;;;;;;;208.60;16.40;;;819.40;1203.20;;;;;;5094443;28;20032;-71
2021/06/29 11:04:58;;;;;;;273.00;21.05;;;819.40;1203.20;;;;;;5094586;28;20040;-71
2021/06/29 11:07:27;;;;;;;205.65;17.55;;;819.30;1203.20;;;;;;5092918;28;20067;-71
2021/06/29 11:09:56;;;;;;;108.80;10.45;;;819.40;1203.20;;;;;;5094308;28;20523;-72
2021/06/29 11:12:23;;;;;;;107.53;11.65;;;819.40;1203.20;;;;;;5094306;28;20037;-72
2021/06/29 11:14:52;;;;;;;79.95;10.98;;;819.40;1177.60;;;;;;5094541;28;20141;-72
2021/06/29 11:17:20;;;;;;;74.32;10.45;;;819.40;1177.60;;;;;;5094145;28;20080;-72
2021/06/29 11:20:00;;;;;;;37.55;8.50;;;819.40;1177.60;;;;;;5094484;28;20020;-72
2021/06/29 11:22:51;;;;;;;32.42;8.57;;;819.50;1152.00;;;;;;5094054;28;20475;-72
2021/06/29 11:25:42;;;;;;;33.50;8.00;;;819.60;1177.60;;;;;;5093945;28;20157;-71
2021/06/29 11:28:11;;;;;;;31.70;7.95;;;819.70;1177.60;;;;;;5094310;28;20384;-71
2021/06/29 11:31:02;;;;;;;28.73;7.80;;;819.70;1177.60;;;;;;5093964;28;20089;-72
2021/06/29 11:34:07;;;;;;;14.35;6.57;;;819.70;1177.60;;;;;;5093960;28;20464;-72
2021/06/29 11:36:34;;;;;;;11.63;7.05;;;819.60;1203.20;;;;;;5076703;28;20028;-72
2021/06/29 11:39:18;;;;;;;15.43;7.25;;;819.70;1177.60;;;;;;5094059;28;20124;-72
2021/06/29 11:42:02;;;;;;;14.40;6.75;;;819.70;1177.60;;;;;;5092598;28;20020;-72
2021/06/29 11:44:28;;;;;;;17.58;6.95;;;819.70;1177.60;;;;;;5093788;28;20138;-72
2021/06/29 11:47:06;;;;;;;19.48;6.32;;;819.80;1177.60;;;;;;5093758;28;20048;-72
2021/06/29 11:49:40;;;;;;;234.65;14.27;;;819.90;1177.60;;;;;;5093758;28;20381;-71
2021/06/29 11:52:13;;;;;;;297.15;18.73;;;820.00;1152.00;;;;;;5093734;28;20480;-72
2021/06/29 11:54:43;;;;;;;159.77;12.93;;;820.10;1152.00;;;;;;5094140;28;20032;-72
2021/06/29 11:57:31;;;;;;;146.40;13.93;;;820.10;1152.00;;;;;;5093592;28;20565;-71
2021/06/29 12:00:00;;;;;;;154.05;12.48;;;820.10;1152.00;;;;;;5093459;28;20020;-73
2021/06/29 12:02:31;;;;;;;144.07;11.68;;;820.10;1152.00;;;;;;5092390;28;20016;-72
2021/06/29 12:05:01;;;;;;;135.38;11.07;;;844.80;1152.00;;;;;;5091888;28;20418;-72
2021/06/29 12:07:38;;;;;;;84.20;9.45;;;844.80;1152.00;;;;;;5093518;28;20028;-71
2021/06/29 12:10:09;;;;;;;44.30;7.70;;;844.80;1152.00;;;;;;5091335;28;20020;-72
2021/06/29 12:12:35;;;;;;;29.48;7.03;;;844.80;1152.00;;;;;;5093421;28;20031;-70
2021/06/29 12:15:12;;;;;;;26.88;7.60;;;844.80;1152.00;;;;;;5092651;28;20024;-71
2021/06/29 12:17:47;;;;;;;22.95;7.28;;;844.90;1152.00;;;;;;5093327;28;20036;-72
2021/06/29 12:20:15;;;;;;;26.33;7.57;;;845.10;1126.40;;;;;;5090667;28;20034;-72
2021/06/29 12:22:44;;;;;;;20.65;8.13;;;845.30;1100.80;;;;;;5092781;28;20111;-72
2021/06/29 12:25:23;;;;;;;23.42;8.15;;;845.50;1075.20;;;;;;5092122;28;20107;-72
2021/06/29 12:28:01;;;;;;;13.63;7.82;;;845.40;1100.80;;;;;;5092795;28;20022;-71
2021/06/29 12:30:37;;;;;;;25.17;7.90;;;845.40;1075.20;;;;;;5092703;28;20028;-71
2021/06/29 12:33:30;;;;;;;120.13;14.07;;;845.50;1049.60;;;;;;5090701;28;20074;-72
2021/06/29 12:36:02;;;;;;;286.83;21.08;;;845.60;1049.60;;;;;;5085076;28;20495;-71
2021/06/29 12:38:56;;;;;;;247.45;19.50;;;870.40;1100.80;;;;;;5072518;28;20388;-71
2021/06/29 12:41:36;;;;;;;162.95;15.88;;;870.40;1049.60;;;;;;5089902;28;20506;-71
2021/06/29 12:44:08;;;;;;;134.80;13.73;;;870.50;1075.20;;;;;;5084009;28;20041;-71
2021/06/29 12:46:36;;;;;;;;;;;870.40;1049.60;;;;;;5093547;28;20027;-72
2021/06/29 12:49:06;;;;;;;86.72;12.45;;;870.40;1049.60;;;;;;5092806;28;20469;-71
2021/06/29 12:51:34;;;;;;;67.00;11.20;;;870.50;1049.60;;;;;;5092794;28;20020;-72
2021/06/29 12:54:01;;;;;;;70.28;11.07;;;870.50;1075.20;;;;;;5089973;28;20027;-71
2021/06/29 12:56:55;;;;;;;48.38;10.95;;;870.40;1075.20;;;;;;5092781;28;20483;-72
2021/06/29 12:59:25;;;;;;;83.50;12.40;;;845.70;1075.20;;;;;;5086260;28;20036;-72
2021/06/29 13:01:54;;;;;;;40.50;10.95;;;845.50;1126.40;;;;;;5093001;28;20102;-71
2021/06/29 13:04:24;;;;;;;52.10;11.75;;;845.70;1075.20;;;;;;5091973;28;20044;-71
2021/06/29 13:07:04;;;;;;;50.60;11.10;;;845.60;1126.40;;;;;;5089665;28;20530;-72
2021/06/29 13:09:37;;;;;;;29.10;11.00;;;845.50;1126.40;;;;;;5091809;28;20020;-71
2021/06/29 13:12:07;;;;;;;33.20;11.07;;;845.70;1100.80;;;;;;5095598;28;20110;-72